sensor_id;sensor_type;location;lat;lon;timestamp;P1;durP1;ratioP1;P2;durP2;ratioP2
11671;SDS011;5892;43.412;24.612;2023-08-12T00:01:35;2.30;;;2.10;;
11671;SDS011;5892;43.412;24.612;2023-08-12T00:04:02;2.50;;;2.30;;
11671;SDS011;5892;43.412;24.612;2023-08-12T00:06:29;3.10;;;2.37;;
11671;SDS011;5892;43.412;24.612;2023-08-12T00:08:57;2.50;;;2.30;;
11671;SDS011;5892;43.412;24.612;2023-08-12T00:11:24;2.47;;;2.07;;
11671;SDS011;5892;43.412;24.612;2023-08-12T00:13:51;3.03;;;2.30;;
11671;SDS011;5892;43.412;24.612;2023-08-12T00:16:18;3.50;;;2.00;;
11671;SDS011;5892;43.412;24.612;2023-08-12T00:18:45;2.00;;;1.80;;
11671;SDS011;5892;43.412;24.612;2023-08-12T00:21:12;4.20;;;2.10;;
11671;SDS011;5892;43.412;24.612;2023-08-12T00:23:40;2.63;;;1.93;;
11671;SDS011;5892;43.412;24.612;2023-08-12T00:26:10;2.63;;;2.07;;
11671;SDS011;5892;43.412;24.612;2023-08-12T00:28:37;2.30;;;2.10;;
11671;SDS011;5892;43.412;24.612;2023-08-12T00:31:04;3.40;;;2.10;;
11671;SDS011;5892;43.412;24.612;2023-08-12T00:33:31;2.27;;;2.07;;
11671;SDS011;5892;43.412;24.612;2023-08-12T00:35:58;2.37;;;2.03;;
11671;SDS011;5892;43.412;24.612;2023-08-12T00:38:25;2.57;;;2.03;;
11671;SDS011;5892;43.412;24.612;2023-08-12T00:40:52;2.70;;;1.97;;
11671;SDS011;5892;43.412;24.612;2023-08-12T00:43:20;3.63;;;2.60;;
11671;SDS011;5892;43.412;24.612;2023-08-12T00:45:47;2.23;;;2.03;;
11671;SDS011;5892;43.412;24.612;2023-08-12T00:48:14;2.40;;;2.10;;
11671;SDS011;5892;43.412;24.612;2023-08-12T00:50:43;1.83;;;1.73;;
11671;SDS011;5892;43.412;24.612;2023-08-12T00:53:11;2.03;;;1.93;;
11671;SDS011;5892;43.412;24.612;2023-08-12T00:55:39;2.90;;;2.30;;
11671;SDS011;5892;43.412;24.612;2023-08-12T00:58:06;4.13;;;2.30;;
11671;SDS011;5892;43.412;24.612;2023-08-12T01:00:36;2.67;;;2.20;;
11671;SDS011;5892;43.412;24.612;2023-08-12T01:03:03;2.50;;;2.27;;
11671;SDS011;5892;43.412;24.612;2023-08-12T01:05:32;2.60;;;1.90;;
11671;SDS011;5892;43.412;24.612;2023-08-12T01:08:00;3.40;;;2.20;;
11671;SDS011;5892;43.412;24.612;2023-08-12T01:10:28;3.70;;;2.13;;
11671;SDS011;5892;43.412;24.612;2023-08-12T01:13:03;2.90;;;2.10;;
11671;SDS011;5892;43.412;24.612;2023-08-12T01:15:36;2.33;;;2.13;;
11671;SDS011;5892;43.412;24.612;2023-08-12T01:18:04;3.30;;;2.10;;
11671;SDS011;5892;43.412;24.612;2023-08-12T01:20:33;2.57;;;2.17;;
11671;SDS011;5892;43.412;24.612;2023-08-12T01:23:07;2.53;;;2.10;;
11671;SDS011;5892;43.412;24.612;2023-08-12T01:25:36;2.70;;;2.00;;
11671;SDS011;5892;43.412;24.612;2023-08-12T01:28:03;2.33;;;2.13;;
11671;SDS011;5892;43.412;24.612;2023-08-12T01:30:31;3.60;;;2.30;;
11671;SDS011;5892;43.412;24.612;2023-08-12T01:33:01;2.30;;;2.10;;
11671;SDS011;5892;43.412;24.612;2023-08-12T01:35:35;3.33;;;2.20;;
11671;SDS011;5892;43.412;24.612;2023-08-12T01:38:08;2.77;;;2.33;;
11671;SDS011;5892;43.412;24.612;2023-08-12T01:40:36;2.20;;;2.00;;
11671;SDS011;5892;43.412;24.612;2023-08-12T01:43:05;2.73;;;2.20;;
11671;SDS011;5892;43.412;24.612;2023-08-12T01:45:33;2.60;;;2.40;;
11671;SDS011;5892;43.412;24.612;2023-08-12T01:48:00;4.70;;;2.20;;
11671;SDS011;5892;43.412;24.612;2023-08-12T01:50:28;2.77;;;2.27;;
11671;SDS011;5892;43.412;24.612;2023-08-12T01:52:55;2.87;;;2.20;;
11671;SDS011;5892;43.412;24.612;2023-08-12T01:55:24;4.93;;;2.17;;
11671;SDS011;5892;43.412;24.612;2023-08-12T01:57:53;2.53;;;2.17;;
11671;SDS011;5892;43.412;24.612;2023-08-12T02:00:19;3.43;;;2.20;;
11671;SDS011;5892;43.412;24.612;2023-08-12T02:02:46;2.83;;;2.27;;
11671;SDS011;5892;43.412;24.612;2023-08-12T02:05:13;3.37;;;2.10;;
11671;SDS011;5892;43.412;24.612;2023-08-12T02:07:40;2.30;;;2.03;;
11671;SDS011;5892;43.412;24.612;2023-08-12T02:10:08;2.50;;;2.30;;
11671;SDS011;5892;43.412;24.612;2023-08-12T02:12:36;5.27;;;2.30;;
11671;SDS011;5892;43.412;24.612;2023-08-12T02:15:03;3.13;;;2.10;;
11671;SDS011;5892;43.412;24.612;2023-08-12T02:17:31;3.70;;;2.30;;
11671;SDS011;5892;43.412;24.612;2023-08-12T02:19:58;2.90;;;2.40;;
11671;SDS011;5892;43.412;24.612;2023-08-12T02:22:25;2.40;;;2.20;;
11671;SDS011;5892;43.412;24.612;2023-08-12T02:24:52;3.67;;;2.30;;
11671;SDS011;5892;43.412;24.612;2023-08-12T02:27:18;2.83;;;2.20;;
11671;SDS011;5892;43.412;24.612;2023-08-12T02:29:49;3.30;;;2.17;;
11671;SDS011;5892;43.412;24.612;2023-08-12T02:32:16;2.43;;;2.00;;
11671;SDS011;5892;43.412;24.612;2023-08-12T02:34:42;2.47;;;2.10;;
11671;SDS011;5892;43.412;24.612;2023-08-12T02:37:09;7.73;;;2.07;;
11671;SDS011;5892;43.412;24.612;2023-08-12T02:39:37;2.43;;;2.10;;
11671;SDS011;5892;43.412;24.612;2023-08-12T02:42:05;3.27;;;2.20;;
11671;SDS011;5892;43.412;24.612;2023-08-12T02:44:31;2.60;;;2.37;;
11671;SDS011;5892;43.412;24.612;2023-08-12T02:47:00;4.07;;;2.50;;
11671;SDS011;5892;43.412;24.612;2023-08-12T02:49:27;2.87;;;2.50;;
11671;SDS011;5892;43.412;24.612;2023-08-12T02:51:54;4.03;;;2.73;;
11671;SDS011;5892;43.412;24.612;2023-08-12T02:54:20;4.43;;;2.43;;
11671;SDS011;5892;43.412;24.612;2023-08-12T02:56:49;4.80;;;3.00;;
11671;SDS011;5892;43.412;24.612;2023-08-12T02:59:16;3.07;;;2.30;;
11671;SDS011;5892;43.412;24.612;2023-08-12T03:01:43;4.87;;;3.20;;
11671;SDS011;5892;43.412;24.612;2023-08-12T03:04:11;3.43;;;2.80;;
11671;SDS011;5892;43.412;24.612;2023-08-12T03:06:38;3.63;;;2.80;;
11671;SDS011;5892;43.412;24.612;2023-08-12T03:09:06;4.83;;;2.83;;
11671;SDS011;5892;43.412;24.612;2023-08-12T03:11:33;4.27;;;2.70;;
11671;SDS011;5892;43.412;24.612;2023-08-12T03:14:00;3.53;;;2.90;;
11671;SDS011;5892;43.412;24.612;2023-08-12T03:16:27;5.47;;;2.77;;
11671;SDS011;5892;43.412;24.612;2023-08-12T03:18:54;3.70;;;2.67;;
11671;SDS011;5892;43.412;24.612;2023-08-12T03:21:22;3.20;;;2.90;;
11671;SDS011;5892;43.412;24.612;2023-08-12T03:23:49;5.13;;;3.03;;
11671;SDS011;5892;43.412;24.612;2023-08-12T03:26:16;4.13;;;3.20;;
11671;SDS011;5892;43.412;24.612;2023-08-12T03:28:43;6.73;;;2.90;;
11671;SDS011;5892;43.412;24.612;2023-08-12T03:31:09;3.10;;;2.80;;
11671;SDS011;5892;43.412;24.612;2023-08-12T03:33:36;3.20;;;2.90;;
11671;SDS011;5892;43.412;24.612;2023-08-12T03:36:03;4.30;;;3.10;;
11671;SDS011;5892;43.412;24.612;2023-08-12T03:38:32;4.20;;;3.20;;
11671;SDS011;5892;43.412;24.612;2023-08-12T03:41:01;4.80;;;3.07;;
11671;SDS011;5892;43.412;24.612;2023-08-12T03:43:28;5.40;;;3.20;;
11671;SDS011;5892;43.412;24.612;2023-08-12T03:45:55;4.03;;;2.97;;
11671;SDS011;5892;43.412;24.612;2023-08-12T03:48:22;6.73;;;3.10;;
11671;SDS011;5892;43.412;24.612;2023-08-12T03:50:50;7.73;;;3.00;;
11671;SDS011;5892;43.412;24.612;2023-08-12T03:53:17;4.03;;;2.90;;
11671;SDS011;5892;43.412;24.612;2023-08-12T03:55:45;6.93;;;2.87;;
11671;SDS011;5892;43.412;24.612;2023-08-12T03:58:12;2.47;;;2.20;;
11671;SDS011;5892;43.412;24.612;2023-08-12T04:00:40;4.73;;;2.10;;
11671;SDS011;5892;43.412;24.612;2023-08-12T04:03:07;4.87;;;2.83;;
11671;SDS011;5892;43.412;24.612;2023-08-12T04:05:34;2.80;;;2.30;;
11671;SDS011;5892;43.412;24.612;2023-08-12T04:08:01;3.50;;;2.40;;
11671;SDS011;5892;43.412;24.612;2023-08-12T04:10:28;3.43;;;2.67;;
11671;SDS011;5892;43.412;24.612;2023-08-12T04:12:57;4.37;;;2.80;;
11671;SDS011;5892;43.412;24.612;2023-08-12T04:15:24;4.23;;;2.47;;
11671;SDS011;5892;43.412;24.612;2023-08-12T04:17:51;4.07;;;2.40;;
11671;SDS011;5892;43.412;24.612;2023-08-12T04:20:18;5.60;;;2.60;;
11671;SDS011;5892;43.412;24.612;2023-08-12T04:22:45;6.03;;;3.27;;
11671;SDS011;5892;43.412;24.612;2023-08-12T04:25:12;6.63;;;3.00;;
11671;SDS011;5892;43.412;24.612;2023-08-12T04:27:39;4.80;;;2.87;;
11671;SDS011;5892;43.412;24.612;2023-08-12T04:30:08;4.20;;;3.27;;
11671;SDS011;5892;43.412;24.612;2023-08-12T04:32:35;7.03;;;3.30;;
11671;SDS011;5892;43.412;24.612;2023-08-12T04:35:02;7.10;;;3.30;;
11671;SDS011;5892;43.412;24.612;2023-08-12T04:37:30;5.17;;;3.20;;
11671;SDS011;5892;43.412;24.612;2023-08-12T04:39:57;4.30;;;3.30;;
11671;SDS011;5892;43.412;24.612;2023-08-12T04:42:24;5.47;;;2.90;;
11671;SDS011;5892;43.412;24.612;2023-08-12T04:44:51;8.17;;;3.40;;
11671;SDS011;5892;43.412;24.612;2023-08-12T04:47:19;4.33;;;3.00;;
11671;SDS011;5892;43.412;24.612;2023-08-12T04:49:46;2.97;;;2.10;;
11671;SDS011;5892;43.412;24.612;2023-08-12T04:52:13;2.27;;;2.07;;
11671;SDS011;5892;43.412;24.612;2023-08-12T04:54:40;2.33;;;2.10;;
11671;SDS011;5892;43.412;24.612;2023-08-12T04:57:07;2.53;;;1.90;;
11671;SDS011;5892;43.412;24.612;2023-08-12T04:59:34;2.90;;;1.90;;
11671;SDS011;5892;43.412;24.612;2023-08-12T05:02:01;2.50;;;2.10;;
11671;SDS011;5892;43.412;24.612;2023-08-12T05:04:29;5.03;;;3.00;;
11671;SDS011;5892;43.412;24.612;2023-08-12T05:06:56;4.07;;;1.90;;
11671;SDS011;5892;43.412;24.612;2023-08-12T05:09:23;3.50;;;2.00;;
11671;SDS011;5892;43.412;24.612;2023-08-12T05:11:49;3.17;;;2.10;;
11671;SDS011;5892;43.412;24.612;2023-08-12T05:14:16;7.90;;;3.47;;
11671;SDS011;5892;43.412;24.612;2023-08-12T05:16:43;2.17;;;1.70;;
11671;SDS011;5892;43.412;24.612;2023-08-12T05:19:10;3.87;;;1.80;;
11671;SDS011;5892;43.412;24.612;2023-08-12T05:21:38;2.00;;;1.80;;
11671;SDS011;5892;43.412;24.612;2023-08-12T05:24:05;2.83;;;1.70;;
11671;SDS011;5892;43.412;24.612;2023-08-12T05:26:33;3.10;;;2.03;;
11671;SDS011;5892;43.412;24.612;2023-08-12T05:29:00;2.73;;;1.90;;
11671;SDS011;5892;43.412;24.612;2023-08-12T05:31:27;3.73;;;2.00;;
11671;SDS011;5892;43.412;24.612;2023-08-12T05:33:53;62.87;;;5.13;;
11671;SDS011;5892;43.412;24.612;2023-08-12T05:36:21;2.13;;;1.60;;
11671;SDS011;5892;43.412;24.612;2023-08-12T05:38:49;3.30;;;1.80;;
11671;SDS011;5892;43.412;24.612;2023-08-12T05:41:16;4.07;;;2.00;;
11671;SDS011;5892;43.412;24.612;2023-08-12T05:43:43;3.60;;;1.53;;
11671;SDS011;5892;43.412;24.612;2023-08-12T05:46:10;5.00;;;2.20;;
11671;SDS011;5892;43.412;24.612;2023-08-12T05:48:37;4.17;;;1.80;;
11671;SDS011;5892;43.412;24.612;2023-08-12T05:51:03;5.77;;;1.80;;
11671;SDS011;5892;43.412;24.612;2023-08-12T05:53:30;8.57;;;2.67;;
11671;SDS011;5892;43.412;24.612;2023-08-12T05:55:59;10.00;;;2.40;;
11671;SDS011;5892;43.412;24.612;2023-08-12T05:58:26;4.00;;;1.87;;
11671;SDS011;5892;43.412;24.612;2023-08-12T06:00:53;3.20;;;1.83;;
11671;SDS011;5892;43.412;24.612;2023-08-12T06:03:20;7.87;;;2.10;;
11671;SDS011;5892;43.412;24.612;2023-08-12T06:05:47;4.93;;;1.90;;
11671;SDS011;5892;43.412;24.612;2023-08-12T06:08:14;5.07;;;2.00;;
11671;SDS011;5892;43.412;24.612;2023-08-12T06:10:41;5.77;;;1.93;;
11671;SDS011;5892;43.412;24.612;2023-08-12T06:13:09;2.97;;;1.80;;
11671;SDS011;5892;43.412;24.612;2023-08-12T06:15:36;4.20;;;1.90;;
11671;SDS011;5892;43.412;24.612;2023-08-12T06:18:03;4.23;;;1.90;;
11671;SDS011;5892;43.412;24.612;2023-08-12T06:20:30;1.83;;;1.73;;
11671;SDS011;5892;43.412;24.612;2023-08-12T06:22:57;3.30;;;1.80;;
11671;SDS011;5892;43.412;24.612;2023-08-12T06:25:24;5.03;;;2.27;;
11671;SDS011;5892;43.412;24.612;2023-08-12T06:27:51;2.40;;;2.20;;
11671;SDS011;5892;43.412;24.612;2023-08-12T06:30:19;3.40;;;2.07;;
11671;SDS011;5892;43.412;24.612;2023-08-12T06:32:46;2.53;;;1.90;;
11671;SDS011;5892;43.412;24.612;2023-08-12T06:35:13;3.23;;;1.90;;
11671;SDS011;5892;43.412;24.612;2023-08-12T06:37:40;1.90;;;1.80;;
11671;SDS011;5892;43.412;24.612;2023-08-12T06:40:07;2.13;;;1.90;;
11671;SDS011;5892;43.412;24.612;2023-08-12T06:42:34;3.43;;;1.67;;
11671;SDS011;5892;43.412;24.612;2023-08-12T06:45:01;5.50;;;2.33;;
11671;SDS011;5892;43.412;24.612;2023-08-12T06:47:30;5.93;;;2.27;;
11671;SDS011;5892;43.412;24.612;2023-08-12T06:49:57;6.23;;;2.00;;
11671;SDS011;5892;43.412;24.612;2023-08-12T06:52:24;2.37;;;1.93;;
11671;SDS011;5892;43.412;24.612;2023-08-12T06:54:51;4.23;;;1.80;;
11671;SDS011;5892;43.412;24.612;2023-08-12T06:57:18;4.77;;;1.70;;
11671;SDS011;5892;43.412;24.612;2023-08-12T06:59:45;2.90;;;1.80;;
11671;SDS011;5892;43.412;24.612;2023-08-12T07:02:12;1.93;;;1.77;;
11671;SDS011;5892;43.412;24.612;2023-08-12T07:04:40;3.70;;;1.83;;
11671;SDS011;5892;43.412;24.612;2023-08-12T07:07:07;4.27;;;1.80;;
11671;SDS011;5892;43.412;24.612;2023-08-12T07:09:34;1.70;;;1.60;;
11671;SDS011;5892;43.412;24.612;2023-08-12T07:12:01;3.70;;;1.70;;
11671;SDS011;5892;43.412;24.612;2023-08-12T07:14:29;3.83;;;1.87;;
11671;SDS011;5892;43.412;24.612;2023-08-12T07:16:56;1.80;;;1.70;;
11671;SDS011;5892;43.412;24.612;2023-08-12T07:19:25;2.93;;;1.77;;
11671;SDS011;5892;43.412;24.612;2023-08-12T07:21:53;1.90;;;1.57;;
11671;SDS011;5892;43.412;24.612;2023-08-12T07:24:20;2.30;;;1.80;;
11671;SDS011;5892;43.412;24.612;2023-08-12T07:26:47;1.53;;;1.43;;
11671;SDS011;5892;43.412;24.612;2023-08-12T07:29:13;3.17;;;1.70;;
11671;SDS011;5892;43.412;24.612;2023-08-12T07:31:40;2.40;;;1.90;;
11671;SDS011;5892;43.412;24.612;2023-08-12T07:34:07;2.33;;;1.77;;
11671;SDS011;5892;43.412;24.612;2023-08-12T07:36:38;3.60;;;1.83;;
11671;SDS011;5892;43.412;24.612;2023-08-12T07:39:06;2.00;;;1.60;;
11671;SDS011;5892;43.412;24.612;2023-08-12T07:41:33;6.30;;;1.80;;
11671;SDS011;5892;43.412;24.612;2023-08-12T07:44:00;1.60;;;1.50;;
11671;SDS011;5892;43.412;24.612;2023-08-12T07:46:27;2.50;;;1.60;;
11671;SDS011;5892;43.412;24.612;2023-08-12T07:48:55;4.00;;;1.90;;
11671;SDS011;5892;43.412;24.612;2023-08-12T07:51:21;1.80;;;1.70;;
11671;SDS011;5892;43.412;24.612;2023-08-12T07:53:48;2.20;;;1.60;;
11671;SDS011;5892;43.412;24.612;2023-08-12T07:56:17;2.10;;;1.90;;
11671;SDS011;5892;43.412;24.612;2023-08-12T07:58:43;2.00;;;1.70;;
11671;SDS011;5892;43.412;24.612;2023-08-12T08:01:11;2.53;;;1.70;;
11671;SDS011;5892;43.412;24.612;2023-08-12T08:03:38;2.13;;;1.60;;
11671;SDS011;5892;43.412;24.612;2023-08-12T08:06:05;1.80;;;1.70;;
11671;SDS011;5892;43.412;24.612;2023-08-12T08:08:34;2.13;;;1.77;;
11671;SDS011;5892;43.412;24.612;2023-08-12T08:11:01;2.17;;;1.70;;
11671;SDS011;5892;43.412;24.612;2023-08-12T08:13:31;2.27;;;1.90;;
11671;SDS011;5892;43.412;24.612;2023-08-12T08:15:58;4.20;;;2.03;;
11671;SDS011;5892;43.412;24.612;2023-08-12T08:18:25;5.40;;;2.40;;
11671;SDS011;5892;43.412;24.612;2023-08-12T08:20:52;2.13;;;1.90;;
11671;SDS011;5892;43.412;24.612;2023-08-12T08:23:20;3.07;;;2.00;;
11671;SDS011;5892;43.412;24.612;2023-08-12T08:25:47;2.53;;;1.90;;
11671;SDS011;5892;43.412;24.612;2023-08-12T08:28:14;4.30;;;1.87;;
11671;SDS011;5892;43.412;24.612;2023-08-12T08:30:43;2.73;;;2.20;;
11671;SDS011;5892;43.412;24.612;2023-08-12T08:33:10;4.40;;;2.20;;
11671;SDS011;5892;43.412;24.612;2023-08-12T08:35:37;2.03;;;1.90;;
11671;SDS011;5892;43.412;24.612;2023-08-12T08:38:04;3.83;;;2.00;;
11671;SDS011;5892;43.412;24.612;2023-08-12T08:40:30;2.20;;;1.80;;
11671;SDS011;5892;43.412;24.612;2023-08-12T08:42:58;2.20;;;1.80;;
11671;SDS011;5892;43.412;24.612;2023-08-12T08:45:29;2.10;;;1.90;;
11671;SDS011;5892;43.412;24.612;2023-08-12T08:48:00;2.10;;;1.90;;
11671;SDS011;5892;43.412;24.612;2023-08-12T08:50:28;3.40;;;1.73;;
11671;SDS011;5892;43.412;24.612;2023-08-12T08:52:59;2.70;;;2.07;;
11671;SDS011;5892;43.412;24.612;2023-08-12T08:55:28;3.30;;;1.90;;
11671;SDS011;5892;43.412;24.612;2023-08-12T08:57:55;2.30;;;1.80;;
11671;SDS011;5892;43.412;24.612;2023-08-12T09:00:23;4.53;;;2.00;;
11671;SDS011;5892;43.412;24.612;2023-08-12T09:02:50;4.83;;;1.97;;
11671;SDS011;5892;43.412;24.612;2023-08-12T09:05:20;2.53;;;1.90;;
11671;SDS011;5892;43.412;24.612;2023-08-12T09:07:48;3.30;;;2.23;;
11671;SDS011;5892;43.412;24.612;2023-08-12T09:10:17;3.37;;;2.23;;
11671;SDS011;5892;43.412;24.612;2023-08-12T09:12:46;2.27;;;2.07;;
11671;SDS011;5892;43.412;24.612;2023-08-12T09:15:13;6.33;;;2.17;;
11671;SDS011;5892;43.412;24.612;2023-08-12T09:17:42;2.30;;;2.10;;
11671;SDS011;5892;43.412;24.612;2023-08-12T09:20:10;2.77;;;2.10;;
11671;SDS011;5892;43.412;24.612;2023-08-12T09:22:39;3.20;;;2.20;;
11671;SDS011;5892;43.412;24.612;2023-08-12T09:25:07;2.30;;;2.10;;
11671;SDS011;5892;43.412;24.612;2023-08-12T09:27:35;4.63;;;2.03;;
11671;SDS011;5892;43.412;24.612;2023-08-12T09:30:03;2.50;;;1.80;;
11671;SDS011;5892;43.412;24.612;2023-08-12T09:32:31;3.53;;;2.27;;
11671;SDS011;5892;43.412;24.612;2023-08-12T09:35:03;2.57;;;1.80;;
11671;SDS011;5892;43.412;24.612;2023-08-12T09:37:31;6.27;;;2.17;;
11671;SDS011;5892;43.412;24.612;2023-08-12T09:39:59;2.00;;;1.90;;
11671;SDS011;5892;43.412;24.612;2023-08-12T09:42:30;4.03;;;1.90;;
11671;SDS011;5892;43.412;24.612;2023-08-12T09:44:57;5.03;;;2.03;;
11671;SDS011;5892;43.412;24.612;2023-08-12T09:47:25;3.00;;;1.97;;
11671;SDS011;5892;43.412;24.612;2023-08-12T09:49:55;3.53;;;1.77;;
11671;SDS011;5892;43.412;24.612;2023-08-12T09:52:22;2.37;;;1.93;;
11671;SDS011;5892;43.412;24.612;2023-08-12T09:54:49;2.77;;;2.00;;
11671;SDS011;5892;43.412;24.612;2023-08-12T09:57:21;4.23;;;1.93;;
11671;SDS011;5892;43.412;24.612;2023-08-12T09:59:51;4.00;;;1.67;;
11671;SDS011;5892;43.412;24.612;2023-08-12T10:02:19;2.43;;;2.23;;
11671;SDS011;5892;43.412;24.612;2023-08-12T10:04:47;2.20;;;2.00;;
11671;SDS011;5892;43.412;24.612;2023-08-12T10:07:21;2.00;;;1.80;;
11671;SDS011;5892;43.412;24.612;2023-08-12T10:09:48;4.13;;;2.00;;
11671;SDS011;5892;43.412;24.612;2023-08-12T10:12:15;2.93;;;1.70;;
11671;SDS011;5892;43.412;24.612;2023-08-12T10:14:44;1.93;;;1.73;;
11671;SDS011;5892;43.412;24.612;2023-08-12T10:17:12;6.97;;;1.90;;
11671;SDS011;5892;43.412;24.612;2023-08-12T10:19:43;3.43;;;1.90;;
11671;SDS011;5892;43.412;24.612;2023-08-12T10:22:10;2.77;;;2.10;;
11671;SDS011;5892;43.412;24.612;2023-08-12T10:24:39;2.10;;;1.90;;
11671;SDS011;5892;43.412;24.612;2023-08-12T10:27:09;2.10;;;1.90;;
11671;SDS011;5892;43.412;24.612;2023-08-12T10:29:37;2.00;;;1.87;;
11671;SDS011;5892;43.412;24.612;2023-08-12T10:32:06;5.70;;;1.90;;
11671;SDS011;5892;43.412;24.612;2023-08-12T10:34:34;2.43;;;1.90;;
11671;SDS011;5892;43.412;24.612;2023-08-12T10:37:02;3.73;;;1.80;;
11671;SDS011;5892;43.412;24.612;2023-08-12T10:39:30;2.30;;;1.90;;
11671;SDS011;5892;43.412;24.612;2023-08-12T10:41:58;5.03;;;1.90;;
11671;SDS011;5892;43.412;24.612;2023-08-12T10:44:26;2.60;;;1.90;;
11671;SDS011;5892;43.412;24.612;2023-08-12T10:46:54;2.83;;;1.83;;
11671;SDS011;5892;43.412;24.612;2023-08-12T10:49:22;1.97;;;1.77;;
11671;SDS011;5892;43.412;24.612;2023-08-12T10:51:50;2.23;;;1.93;;
11671;SDS011;5892;43.412;24.612;2023-08-12T10:54:20;3.00;;;1.80;;
11671;SDS011;5892;43.412;24.612;2023-08-12T10:57:06;2.63;;;1.80;;
11671;SDS011;5892;43.412;24.612;2023-08-12T10:59:47;2.00;;;1.80;;
11671;SDS011;5892;43.412;24.612;2023-08-12T11:02:19;3.23;;;1.87;;
11671;SDS011;5892;43.412;24.612;2023-08-12T11:04:50;2.10;;;1.90;;
11671;SDS011;5892;43.412;24.612;2023-08-12T11:07:19;2.57;;;1.77;;
11671;SDS011;5892;43.412;24.612;2023-08-12T11:09:50;4.20;;;1.90;;
11671;SDS011;5892;43.412;24.612;2023-08-12T11:12:27;3.33;;;1.87;;
11671;SDS011;5892;43.412;24.612;2023-08-12T11:14:56;2.47;;;1.90;;
11671;SDS011;5892;43.412;24.612;2023-08-12T11:17:28;2.13;;;1.70;;
11671;SDS011;5892;43.412;24.612;2023-08-12T11:19:57;2.80;;;1.60;;
11671;SDS011;5892;43.412;24.612;2023-08-12T11:22:25;1.92;;;1.73;;
11671;SDS011;5892;43.412;24.612;2023-08-12T11:24:52;1.77;;;1.60;;
11671;SDS011;5892;43.412;24.612;2023-08-12T11:27:19;2.90;;;2.07;;
11671;SDS011;5892;43.412;24.612;2023-08-12T11:29:46;1.70;;;1.60;;
11671;SDS011;5892;43.412;24.612;2023-08-12T11:32:16;1.70;;;1.60;;
11671;SDS011;5892;43.412;24.612;2023-08-12T11:34:43;3.90;;;1.70;;
11671;SDS011;5892;43.412;24.612;2023-08-12T11:37:13;2.33;;;1.75;;
11671;SDS011;5892;43.412;24.612;2023-08-12T11:39:40;1.88;;;1.75;;
11671;SDS011;5892;43.412;24.612;2023-08-12T11:42:07;3.40;;;1.80;;
11671;SDS011;5892;43.412;24.612;2023-08-12T11:44:34;1.70;;;1.48;;
11671;SDS011;5892;43.412;24.612;2023-08-12T11:47:01;4.38;;;2.05;;
11671;SDS011;5892;43.412;24.612;2023-08-12T11:49:28;2.50;;;1.60;;
11671;SDS011;5892;43.412;24.612;2023-08-12T11:51:54;2.33;;;1.67;;
11671;SDS011;5892;43.412;24.612;2023-08-12T11:54:23;3.13;;;1.60;;
11671;SDS011;5892;43.412;24.612;2023-08-12T11:56:50;3.80;;;2.00;;
11671;SDS011;5892;43.412;24.612;2023-08-12T11:59:17;2.63;;;1.80;;
11671;SDS011;5892;43.412;24.612;2023-08-12T12:01:46;2.58;;;1.70;;
11671;SDS011;5892;43.412;24.612;2023-08-12T12:04:15;2.03;;;1.80;;
11671;SDS011;5892;43.412;24.612;2023-08-12T12:06:44;1.70;;;1.60;;
11671;SDS011;5892;43.412;24.612;2023-08-12T12:09:11;6.65;;;2.00;;
11671;SDS011;5892;43.412;24.612;2023-08-12T12:11:41;3.10;;;1.80;;
11671;SDS011;5892;43.412;24.612;2023-08-12T12:14:08;4.72;;;2.00;;
11671;SDS011;5892;43.412;24.612;2023-08-12T12:16:39;2.77;;;1.70;;
11671;SDS011;5892;43.412;24.612;2023-08-12T12:19:12;2.10;;;1.90;;
11671;SDS011;5892;43.412;24.612;2023-08-12T12:21:42;2.83;;;1.80;;
11671;SDS011;5892;43.412;24.612;2023-08-12T12:24:12;5.30;;;2.08;;
11671;SDS011;5892;43.412;24.612;2023-08-12T12:26:40;3.73;;;1.90;;
11671;SDS011;5892;43.412;24.612;2023-08-12T12:29:07;3.27;;;2.17;;
11671;SDS011;5892;43.412;24.612;2023-08-12T12:31:36;3.17;;;2.20;;
11671;SDS011;5892;43.412;24.612;2023-08-12T12:34:06;2.20;;;2.00;;
11671;SDS011;5892;43.412;24.612;2023-08-12T12:36:35;3.20;;;2.00;;
11671;SDS011;5892;43.412;24.612;2023-08-12T12:39:03;2.53;;;1.80;;
11671;SDS011;5892;43.412;24.612;2023-08-12T12:41:30;2.10;;;1.87;;
11671;SDS011;5892;43.412;24.612;2023-08-12T12:43:59;4.40;;;1.97;;
11671;SDS011;5892;43.412;24.612;2023-08-12T12:46:27;2.60;;;2.13;;
11671;SDS011;5892;43.412;24.612;2023-08-12T12:48:54;2.30;;;2.10;;
11671;SDS011;5892;43.412;24.612;2023-08-12T12:51:21;3.10;;;1.90;;
11671;SDS011;5892;43.412;24.612;2023-08-12T12:53:47;6.03;;;2.30;;
11671;SDS011;5892;43.412;24.612;2023-08-12T12:56:14;4.83;;;1.80;;
11671;SDS011;5892;43.412;24.612;2023-08-12T12:58:41;2.17;;;1.90;;
11671;SDS011;5892;43.412;24.612;2023-08-12T13:01:10;3.17;;;1.70;;
11671;SDS011;5892;43.412;24.612;2023-08-12T13:03:36;2.67;;;1.80;;
11671;SDS011;5892;43.412;24.612;2023-08-12T13:06:03;1.80;;;1.70;;
11671;SDS011;5892;43.412;24.612;2023-08-12T13:08:30;2.88;;;2.10;;
11671;SDS011;5892;43.412;24.612;2023-08-12T13:10:57;3.00;;;1.80;;
11671;SDS011;5892;43.412;24.612;2023-08-12T13:13:24;4.15;;;1.80;;
11671;SDS011;5892;43.412;24.612;2023-08-12T13:15:51;4.15;;;2.00;;
11671;SDS011;5892;43.412;24.612;2023-08-12T13:18:20;2.38;;;1.90;;
11671;SDS011;5892;43.412;24.612;2023-08-12T13:20:46;2.50;;;1.90;;
11671;SDS011;5892;43.412;24.612;2023-08-12T13:23:14;2.35;;;1.83;;
11671;SDS011;5892;43.412;24.612;2023-08-12T13:25:41;2.15;;;1.95;;
11671;SDS011;5892;43.412;24.612;2023-08-12T13:28:08;2.72;;;2.10;;
11671;SDS011;5892;43.412;24.612;2023-08-12T13:30:35;2.17;;;1.98;;
11671;SDS011;5892;43.412;24.612;2023-08-12T13:33:02;2.95;;;2.05;;
11671;SDS011;5892;43.412;24.612;2023-08-12T13:35:32;2.63;;;1.98;;
11671;SDS011;5892;43.412;24.612;2023-08-12T13:37:59;2.72;;;1.95;;
11671;SDS011;5892;43.412;24.612;2023-08-12T13:40:26;7.93;;;2.25;;
11671;SDS011;5892;43.412;24.612;2023-08-12T13:42:53;3.10;;;2.20;;
11671;SDS011;5892;43.412;24.612;2023-08-12T13:45:19;6.50;;;2.00;;
11671;SDS011;5892;43.412;24.612;2023-08-12T13:47:47;2.50;;;1.90;;
11671;SDS011;5892;43.412;24.612;2023-08-12T13:50:14;2.37;;;1.97;;
11671;SDS011;5892;43.412;24.612;2023-08-12T13:52:42;2.77;;;2.30;;
11671;SDS011;5892;43.412;24.612;2023-08-12T13:55:09;2.40;;;2.20;;
11671;SDS011;5892;43.412;24.612;2023-08-12T13:57:36;2.00;;;1.80;;
11671;SDS011;5892;43.412;24.612;2023-08-12T14:00:03;2.70;;;1.90;;
11671;SDS011;5892;43.412;24.612;2023-08-12T14:02:35;2.23;;;2.00;;
11671;SDS011;5892;43.412;24.612;2023-08-12T14:05:02;2.17;;;2.03;;
11671;SDS011;5892;43.412;24.612;2023-08-12T14:07:30;2.33;;;2.13;;
11671;SDS011;5892;43.412;24.612;2023-08-12T14:09:59;2.67;;;1.90;;
11671;SDS011;5892;43.412;24.612;2023-08-12T14:12:27;2.07;;;1.90;;
11671;SDS011;5892;43.412;24.612;2023-08-12T14:14:55;2.40;;;1.70;;
11671;SDS011;5892;43.412;24.612;2023-08-12T14:17:26;2.20;;;1.93;;
11671;SDS011;5892;43.412;24.612;2023-08-12T14:19:53;4.77;;;2.07;;
11671;SDS011;5892;43.412;24.612;2023-08-12T14:22:20;2.13;;;1.90;;
11671;SDS011;5892;43.412;24.612;2023-08-12T14:24:47;3.23;;;2.43;;
11671;SDS011;5892;43.412;24.612;2023-08-12T14:27:15;2.33;;;2.10;;
11671;SDS011;5892;43.412;24.612;2023-08-12T14:29:43;2.60;;;2.00;;
11671;SDS011;5892;43.412;24.612;2023-08-12T14:32:11;4.07;;;2.00;;
11671;SDS011;5892;43.412;24.612;2023-08-12T14:34:38;3.33;;;1.93;;
11671;SDS011;5892;43.412;24.612;2023-08-12T14:37:05;2.67;;;1.77;;
11671;SDS011;5892;43.412;24.612;2023-08-12T14:39:34;4.37;;;1.90;;
11671;SDS011;5892;43.412;24.612;2023-08-12T14:42:01;1.87;;;1.73;;
11671;SDS011;5892;43.412;24.612;2023-08-12T14:44:30;3.13;;;1.80;;
11671;SDS011;5892;43.412;24.612;2023-08-12T14:47:00;4.53;;;2.10;;
11671;SDS011;5892;43.412;24.612;2023-08-12T14:49:27;3.73;;;1.87;;
11671;SDS011;5892;43.412;24.612;2023-08-12T14:51:54;4.87;;;2.20;;